Time;durP1;ratioP1;P1;durP2;ratioP2;P2;SDS_P1;SDS_P2;PMS_P1;PMS_P2;Temp;Humidity;BMP_temperature;BMP_pressure;BME280_temperature;BME280_humidity;BME280_pressure;Samples;Min_cycle;Max_cycle;Signal;HPM_P1;HPM_P2
2022/01/07 00:02:12;;;;;;;14.43;5.13;;;;;;;;;;5015091;28;20227;-60
2022/01/07 00:04:37;;;;;;;12.00;4.37;;;;;;;;;;4994332;28;20307;-60
2022/01/07 00:07:03;;;;;;;12.80;4.93;;;;;;;;;;5015957;28;20296;-60
2022/01/07 00:09:28;;;;;;;14.80;4.57;;;;;;;;;;5016325;28;20201;-60
2022/01/07 00:11:54;;;;;;;14.87;5.03;;;;;;;;;;5015708;28;20291;-60
2022/01/07 00:14:19;;;;;;;13.00;4.43;;;;;;;;;;4998113;28;20296;-60
2022/01/07 00:16:44;;;;;;;13.30;5.17;;;;;;;;;;5015356;28;20690;-60
2022/01/07 00:19:09;;;;;;;15.73;4.77;;;;;;;;;;5015318;28;20253;-60
2022/01/07 00:21:35;;;;;;;14.87;4.97;;;;;;;;;;5016075;28;20217;-60
2022/01/07 00:24:00;;;;;;;15.67;4.80;;;;;;;;;;5015236;28;20310;-60
2022/01/07 00:26:25;;;;;;;16.13;5.07;;;;;;;;;;5016095;28;20219;-60
2022/01/07 00:28:50;;;;;;;12.97;5.00;;;;;;;;;;4998541;28;20223;-60
2022/01/07 00:31:16;;;;;;;12.53;4.60;;;;;;;;;;5014748;28;20269;-60
2022/01/07 00:33:41;;;;;;;11.70;5.00;;;;;;;;;;5016109;28;20208;-60
2022/01/07 00:36:06;;;;;;;15.80;5.37;;;;;;;;;;5015499;28;20220;-60
2022/01/07 00:38:33;;;;;;;14.27;5.10;;;;;;;;;;4997650;28;20683;-60
2022/01/07 00:40:58;;;;;;;14.33;5.27;;;;;;;;;;5016099;28;20212;-60
2022/01/07 00:43:23;;;;;;;17.70;5.50;;;;;;;;;;5019424;28;20219;-60
2022/01/07 00:45:48;;;;;;;19.70;6.07;;;;;;;;;;5017095;28;20246;-60
2022/01/07 00:48:14;;;;;;;17.00;6.00;;;;;;;;;;5034996;28;20666;-60
2022/01/07 00:50:39;;;;;;;15.93;5.50;;;;;;;;;;5035227;28;20242;-60
2022/01/07 00:53:04;;;;;;;12.77;5.20;;;;;;;;;;5034149;28;20601;-60
2022/01/07 00:55:29;;;;;;;14.00;5.23;;;;;;;;;;5035146;28;20214;-60
2022/01/07 00:57:55;;;;;;;11.07;4.57;;;;;;;;;;5035367;28;20208;-60
2022/01/07 01:00:22;;;;;;;17.27;4.80;;;;;;;;;;5033754;28;20211;-60
2022/01/07 01:02:47;;;;;;;16.13;5.47;;;;;;;;;;5017461;28;20302;-60
2022/01/07 01:05:13;;;;;;;12.50;4.23;;;;;;;;;;5034644;28;20392;-60
2022/01/07 01:07:38;;;;;;;13.77;5.10;;;;;;;;;;5016732;28;20207;-60
2022/01/07 01:10:06;;;;;;;8.20;4.90;;;;;;;;;;5034746;28;20200;-61
2022/01/07 01:12:31;;;;;;;14.63;5.00;;;;;;;;;;5034867;28;20703;-60
2022/01/07 01:14:56;;;;;;;13.97;4.73;;;;;;;;;;5034276;28;20287;-60
2022/01/07 01:17:22;;;;;;;12.10;4.73;;;;;;;;;;5018141;28;20667;-61
2022/01/07 01:19:47;;;;;;;14.10;5.27;;;;;;;;;;5014900;28;20295;-60
2022/01/07 01:22:12;;;;;;;15.77;4.83;;;;;;;;;;5020768;28;20258;-60
2022/01/07 01:24:38;;;;;;;11.40;4.80;;;;;;;;;;5034079;28;20243;-60
2022/01/07 01:27:03;;;;;;;14.83;5.33;;;;;;;;;;5033645;28;20702;-59
2022/01/07 01:29:29;;;;;;;13.33;5.20;;;;;;;;;;5034822;28;20587;-60
2022/01/07 01:31:54;;;;;;;14.00;5.43;;;;;;;;;;5034488;28;20219;-60
2022/01/07 01:34:19;;;;;;;14.87;5.97;;;;;;;;;;5033485;28;20218;-60
2022/01/07 01:36:45;;;;;;;16.47;6.17;;;;;;;;;;5034527;28;20212;-60
2022/01/07 01:39:12;;;;;;;20.47;6.93;;;;;;;;;;5016627;28;20238;-60
2022/01/07 01:41:37;;;;;;;15.87;6.90;;;;;;;;;;5033726;28;20208;-60
2022/01/07 01:44:03;;;;;;;18.37;7.30;;;;;;;;;;5033900;28;20268;-60
2022/01/07 01:46:28;;;;;;;15.20;7.00;;;;;;;;;;5034199;28;20670;-59
2022/01/07 01:48:53;;;;;;;17.40;7.30;;;;;;;;;;5033604;28;20203;-60
2022/01/07 01:51:18;;;;;;;15.23;6.50;;;;;;;;;;5033805;28;20212;-59
2022/01/07 01:53:44;;;;;;;13.90;6.10;;;;;;;;;;5034329;28;20218;-59
2022/01/07 01:56:09;;;;;;;12.37;5.93;;;;;;;;;;5033039;28;20295;-59
2022/01/07 01:58:34;;;;;;;16.97;6.10;;;;;;;;;;5034368;28;20230;-59
2022/01/07 02:01:00;;;;;;;13.73;5.83;;;;;;;;;;5026455;28;20343;-59
2022/01/07 02:03:25;;;;;;;15.67;6.20;;;;;;;;;;4995288;28;20213;-59
2022/01/07 02:05:50;;;;;;;13.23;6.37;;;;;;;;;;5014464;28;20227;-59
2022/01/07 02:08:15;;;;;;;13.40;5.73;;;;;;;;;;5013871;28;20213;-59
2022/01/07 02:10:41;;;;;;;16.30;5.73;;;;;;;;;;5013409;28;20217;-59
2022/01/07 02:13:06;;;;;;;16.97;6.00;;;;;;;;;;5013823;28;20212;-59
2022/01/07 02:15:32;;;;;;;12.63;6.00;;;;;;;;;;5014052;28;20548;-59
2022/01/07 02:17:57;;;;;;;12.93;6.17;;;;;;;;;;4979420;28;20217;-59
2022/01/07 02:20:25;;;;;;;13.33;6.00;;;;;;;;;;5013889;28;20216;-59
2022/01/07 02:22:50;;;;;;;15.90;5.73;;;;;;;;;;5013831;28;20212;-60
2022/01/07 02:25:16;;;;;;;15.50;5.90;;;;;;;;;;5012867;28;20596;-59
2022/01/07 02:27:42;;;;;;;15.77;6.00;;;;;;;;;;5013267;28;20242;-59
2022/01/07 02:30:09;;;;;;;16.23;6.07;;;;;;;;;;5013217;28;20671;-59
2022/01/07 02:32:35;;;;;;;14.43;5.97;;;;;;;;;;5012859;28;20694;-59
2022/01/07 02:35:00;;;;;;;12.97;5.70;;;;;;;;;;5013998;28;20216;-59
2022/01/07 02:37:25;;;;;;;13.67;5.40;;;;;;;;;;4994953;28;20216;-59
2022/01/07 02:39:51;;;;;;;19.40;7.03;;;;;;;;;;4996134;28;20220;-59
2022/01/07 02:42:16;;;;;;;16.07;6.13;;;;;;;;;;5013149;28;20209;-59
2022/01/07 02:44:42;;;;;;;21.60;7.43;;;;;;;;;;4994954;28;20611;-59
2022/01/07 02:47:07;;;;;;;17.50;6.77;;;;;;;;;;5013108;28;20220;-60
2022/01/07 02:49:32;;;;;;;14.20;6.30;;;;;;;;;;4996266;28;20275;-59
2022/01/07 02:51:57;;;;;;;16.63;6.60;;;;;;;;;;4994897;28;20710;-59
2022/01/07 02:54:23;;;;;;;15.17;6.40;;;;;;;;;;5012949;28;20291;-59
2022/01/07 02:56:48;;;;;;;16.73;6.53;;;;;;;;;;5013348;28;20668;-59
2022/01/07 02:59:13;;;;;;;18.13;5.90;;;;;;;;;;4994546;28;20259;-59
2022/01/07 03:01:38;;;;;;;13.70;5.30;;;;;;;;;;5025793;28;20272;-59
2022/01/07 03:04:04;;;;;;;13.57;5.30;;;;;;;;;;5032286;28;20223;-59
2022/01/07 03:06:29;;;;;;;20.40;5.57;;;;;;;;;;5032648;28;20212;-59
2022/01/07 03:08:55;;;;;;;11.60;4.83;;;;;;;;;;5032629;28;20218;-59
2022/01/07 03:11:20;;;;;;;10.70;4.37;;;;;;;;;;5032481;28;20222;-59
2022/01/07 03:13:46;;;;;;;12.93;5.03;;;;;;;;;;5031798;28;20702;-59
2022/01/07 03:16:11;;;;;;;13.13;4.77;;;;;;;;;;5008508;28;20224;-59
2022/01/07 03:18:36;;;;;;;10.80;4.50;;;;;;;;;;5012803;28;20251;-59
2022/01/07 03:21:03;;;;;;;11.40;4.50;;;;;;;;;;5011689;28;20223;-59
2022/01/07 03:23:28;;;;;;;14.57;4.73;;;;;;;;;;5029929;28;20219;-59
2022/01/07 03:25:54;;;;;;;12.37;5.27;;;;;;;;;;5015121;28;20219;-59
2022/01/07 03:28:19;;;;;;;10.73;4.30;;;;;;;;;;5031334;28;20619;-59
2022/01/07 03:30:44;;;;;;;12.30;5.20;;;;;;;;;;5032598;28;20212;-59
2022/01/07 03:33:10;;;;;;;15.23;5.27;;;;;;;;;;5032098;28;20217;-59
2022/01/07 03:35:35;;;;;;;13.67;5.27;;;;;;;;;;5031654;28;20207;-59
2022/01/07 03:38:00;;;;;;;14.23;5.23;;;;;;;;;;5031903;28;20307;-59
2022/01/07 03:40:26;;;;;;;12.50;5.43;;;;;;;;;;5032438;28;20208;-59
2022/01/07 03:42:51;;;;;;;14.67;5.30;;;;;;;;;;5014023;28;20717;-59
2022/01/07 03:45:16;;;;;;;18.00;5.87;;;;;;;;;;5032016;28;20636;-59
2022/01/07 03:47:42;;;;;;;16.73;4.70;;;;;;;;;;5031577;28;20660;-59
2022/01/07 03:50:08;;;;;;;11.87;4.67;;;;;;;;;;5031911;28;20224;-60
2022/01/07 03:52:33;;;;;;;12.73;4.43;;;;;;;;;;5032293;28;20220;-59
2022/01/07 03:54:58;;;;;;;11.33;3.80;;;;;;;;;;5031416;28;20269;-59
2022/01/07 03:57:24;;;;;;;12.27;4.03;;;;;;;;;;5032058;28;20211;-59
2022/01/07 03:59:50;;;;;;;10.30;4.10;;;;;;;;;;5032058;28;20231;-59
2022/01/07 04:02:16;;;;;;;9.00;3.67;;;;;;;;;;5013211;28;20262;-59
2022/01/07 04:04:41;;;;;;;10.77;3.90;;;;;;;;;;5012474;28;20236;-59
2022/01/07 04:07:06;;;;;;;10.90;4.17;;;;;;;;;;4994680;28;20216;-59
2022/01/07 04:09:32;;;;;;;10.93;4.00;;;;;;;;;;5011508;28;20212;-59
2022/01/07 04:11:59;;;;;;;9.50;4.00;;;;;;;;;;5012632;28;20220;-59
2022/01/07 04:14:25;;;;;;;12.60;4.50;;;;;;;;;;5012072;28;20208;-59
2022/01/07 04:16:51;;;;;;;7.23;3.73;;;;;;;;;;5011606;28;20287;-59
2022/01/07 04:19:16;;;;;;;11.03;4.03;;;;;;;;;;5011829;28;20231;-59
2022/01/07 04:21:42;;;;;;;9.73;4.00;;;;;;;;;;5012040;28;20711;-59
2022/01/07 04:24:07;;;;;;;11.47;4.00;;;;;;;;;;5010890;28;20232;-59
2022/01/07 04:26:32;;;;;;;8.40;3.50;;;;;;;;;;4994814;28;20225;-59
2022/01/07 04:28:57;;;;;;;9.83;4.17;;;;;;;;;;5012071;28;20581;-59
2022/01/07 04:31:23;;;;;;;8.00;3.53;;;;;;;;;;4993319;28;20288;-59
2022/01/07 04:33:48;;;;;;;8.47;3.53;;;;;;;;;;5012164;28;20215;-60
2022/01/07 04:36:13;;;;;;;6.97;3.77;;;;;;;;;;5011627;28;20220;-60
2022/01/07 04:38:38;;;;;;;9.67;3.80;;;;;;;;;;4993584;28;20634;-59
2022/01/07 04:41:04;;;;;;;9.30;3.90;;;;;;;;;;5011450;28;20569;-59
2022/01/07 04:43:29;;;;;;;9.80;4.00;;;;;;;;;;5016779;28;20323;-60
2022/01/07 04:45:54;;;;;;;9.83;4.13;;;;;;;;;;5031134;28;20218;-60
2022/01/07 04:48:20;;;;;;;8.47;3.70;;;;;;;;;;5031268;28;20226;-60
2022/01/07 04:50:45;;;;;;;10.40;3.40;;;;;;;;;;5031885;28;20291;-60
2022/01/07 04:53:10;;;;;;;6.97;3.50;;;;;;;;;;5016353;28;20216;-60
2022/01/07 04:55:38;;;;;;;10.10;4.23;;;;;;;;;;5035163;28;20740;-60
2022/01/07 04:58:04;;;;;;;7.73;3.67;;;;;;;;;;5033987;28;20215;-59
2022/01/07 05:00:29;;;;;;;8.33;3.73;;;;;;;;;;5035240;28;20204;-60
2022/01/07 05:02:54;;;;;;;7.27;3.60;;;;;;;;;;5035200;28;20713;-59
2022/01/07 05:05:20;;;;;;;9.83;3.83;;;;;;;;;;5033803;28;20224;-59
2022/01/07 05:07:45;;;;;;;9.10;4.10;;;;;;;;;;5034988;28;20212;-59
2022/01/07 05:10:11;;;;;;;9.43;3.87;;;;;;;;;;5034404;28;20216;-60
2022/01/07 05:12:36;;;;;;;8.00;3.97;;;;;;;;;;5016383;28;20231;-59
2022/01/07 05:15:02;;;;;;;8.97;3.80;;;;;;;;;;5034799;28;20295;-59
2022/01/07 05:17:27;;;;;;;8.33;3.70;;;;;;;;;;5018282;28;20213;-59
2022/01/07 05:19:53;;;;;;;6.33;3.60;;;;;;;;;;4997059;28;20221;-59
2022/01/07 05:22:18;;;;;;;8.83;3.60;;;;;;;;;;5004761;28;20678;-59
2022/01/07 05:24:43;;;;;;;6.90;3.90;;;;;;;;;;5034955;28;20215;-59
2022/01/07 05:27:09;;;;;;;8.77;4.10;;;;;;;;;;5033112;28;20239;-59
2022/01/07 05:29:35;;;;;;;8.87;3.73;;;;;;;;;;5034599;28;20211;-59
2022/01/07 05:32:02;;;;;;;6.73;3.60;;;;;;;;;;5034159;28;20219;-60
2022/01/07 05:34:27;;;;;;;8.63;4.00;;;;;;;;;;5033808;28;20220;-59
2022/01/07 05:36:53;;;;;;;7.03;4.00;;;;;;;;;;5016798;28;20575;-59
2022/01/07 05:39:18;;;;;;;7.23;4.17;;;;;;;;;;5016385;28;20687;-59
2022/01/07 05:41:44;;;;;;;11.10;4.63;;;;;;;;;;5033367;28;20219;-60
2022/01/07 05:44:09;;;;;;;7.77;4.30;;;;;;;;;;5033513;28;20642;-59
2022/01/07 05:46:34;;;;;;;8.33;4.37;;;;;;;;;;5016431;28;20211;-59
2022/01/07 05:48:59;;;;;;;8.77;4.90;;;;;;;;;;5015797;28;20200;-59
2022/01/07 05:51:25;;;;;;;8.73;4.20;;;;;;;;;;5033589;28;20253;-59
2022/01/07 05:53:50;;;;;;;7.23;4.77;;;;;;;;;;5034300;28;20211;-59
2022/01/07 05:56:16;;;;;;;8.37;4.53;;;;;;;;;;5032748;28;20223;-59
2022/01/07 05:58:41;;;;;;;9.17;5.10;;;;;;;;;;5034228;28;20290;-59
2022/01/07 06:01:09;;;;;;;8.63;4.77;;;;;;;;;;5024872;28;20247;-59
2022/01/07 06:03:35;;;;;;;7.67;4.60;;;;;;;;;;5013483;28;20212;-59
2022/01/07 06:06:00;;;;;;;8.30;4.63;;;;;;;;;;5013641;28;20213;-60
2022/01/07 06:08:25;;;;;;;8.53;5.13;;;;;;;;;;4995721;28;20227;-59
2022/01/07 06:10:51;;;;;;;10.67;4.80;;;;;;;;;;5014235;28;20219;-59
2022/01/07 06:13:16;;;;;;;9.93;5.27;;;;;;;;;;5013318;28;20722;-58
2022/01/07 06:15:41;;;;;;;12.50;5.20;;;;;;;;;;5013171;28;20221;-59
2022/01/07 06:18:07;;;;;;;9.47;5.40;;;;;;;;;;4995707;28;20378;-59
2022/01/07 06:20:32;;;;;;;10.93;5.50;;;;;;;;;;5013997;28;20216;-59
2022/01/07 06:22:57;;;;;;;8.40;4.80;;;;;;;;;;4995254;28;20208;-59
2022/01/07 06:25:23;;;;;;;11.20;5.17;;;;;;;;;;5013388;28;20255;-59
2022/01/07 06:27:48;;;;;;;10.17;5.90;;;;;;;;;;5013515;28;20217;-59
2022/01/07 06:30:13;;;;;;;13.70;6.30;;;;;;;;;;5012349;28;20216;-59
2022/01/07 06:32:39;;;;;;;11.23;6.03;;;;;;;;;;4996161;28;20208;-60
2022/01/07 06:35:04;;;;;;;14.13;7.47;;;;;;;;;;5012243;28;20510;-59
2022/01/07 06:37:29;;;;;;;12.33;6.40;;;;;;;;;;5012712;28;20444;-59
2022/01/07 06:39:55;;;;;;;9.73;5.80;;;;;;;;;;5013407;28;20564;-60
2022/01/07 06:42:21;;;;;;;10.67;5.77;;;;;;;;;;5012770;28;20234;-58
2022/01/07 06:44:46;;;;;;;10.67;6.17;;;;;;;;;;5027644;28;20310;-58
2022/01/07 06:47:11;;;;;;;11.57;6.50;;;;;;;;;;5015048;28;20215;-59
2022/01/07 06:49:36;;;;;;;10.50;6.00;;;;;;;;;;5033081;28;20227;-58
2022/01/07 06:52:02;;;;;;;11.47;6.57;;;;;;;;;;5031905;28;20212;-59
2022/01/07 06:54:27;;;;;;;9.13;6.17;;;;;;;;;;5015268;28;20235;-58
2022/01/07 06:56:53;;;;;;;12.27;6.40;;;;;;;;;;5032768;28;20206;-59
2022/01/07 06:59:18;;;;;;;13.10;6.60;;;;;;;;;;5031434;28;20218;-59
2022/01/07 07:01:45;;;;;;;13.40;6.43;;;;;;;;;;5032826;28;20223;-59
2022/01/07 07:04:10;;;;;;;12.70;6.50;;;;;;;;;;5032252;28;20297;-59
2022/01/07 07:06:35;;;;;;;12.03;5.97;;;;;;;;;;5032061;28;20671;-58
2022/01/07 07:09:01;;;;;;;14.10;6.93;;;;;;;;;;5032143;28;20312;-59
2022/01/07 07:11:26;;;;;;;12.70;6.47;;;;;;;;;;5032760;28;20399;-59
2022/01/07 07:13:52;;;;;;;11.73;7.20;;;;;;;;;;5031249;28;20236;-58
2022/01/07 07:16:17;;;;;;;14.50;7.53;;;;;;;;;;5025638;28;20238;-58
2022/01/07 07:18:42;;;;;;;12.83;7.30;;;;;;;;;;5011961;28;20682;-59
2022/01/07 07:21:10;;;;;;;18.30;14.23;;;;;;;;;;5014749;28;20286;-59
2022/01/07 07:23:35;;;;;;;13.53;9.97;;;;;;;;;;5022312;28;20200;-58
2022/01/07 07:26:01;;;;;;;12.30;7.50;;;;;;;;;;5031082;28;20311;-58
2022/01/07 07:28:26;;;;;;;13.60;7.17;;;;;;;;;;5031555;28;20215;-59
2022/01/07 07:30:54;;;;;;;10.43;7.13;;;;;;;;;;5012157;28;20212;-58
2022/01/07 07:38:35;;;;;;;15.27;7.53;;;;;;;;;;5020330;28;20574;-59
2022/01/07 07:41:01;;;;;;;16.33;7.83;;;;;;;;;;5003381;28;20200;-59
2022/01/07 07:43:26;;;;;;;15.83;7.93;;;;;;;;;;5021887;28;20299;-58
2022/01/07 07:45:51;;;;;;;18.03;8.00;;;;;;;;;;5022107;28;20257;-58
2022/01/07 07:48:16;;;;;;;14.17;7.63;;;;;;;;;;5021440;28;20208;-59
2022/01/07 07:50:42;;;;;;;12.17;7.93;;;;;;;;;;5001015;28;20594;-58
2022/01/07 07:53:07;;;;;;;11.20;7.40;;;;;;;;;;5011671;28;20221;-59
2022/01/07 07:55:32;;;;;;;16.10;8.33;;;;;;;;;;4994211;28;20242;-58
2022/01/07 07:57:58;;;;;;;13.17;7.87;;;;;;;;;;5012467;28;20639;-58
2022/01/07 08:00:23;;;;;;;18.37;7.87;;;;;;;;;;5019000;28;21018;-58
2022/01/07 08:02:48;;;;;;;18.00;8.00;;;;;;;;;;5027027;28;20212;-66
2022/01/07 08:05:13;;;;;;;15.17;8.47;;;;;;;;;;5026434;28;20232;-58
2022/01/07 08:07:39;;;;;;;16.03;8.07;;;;;;;;;;5031065;28;20208;-58
2022/01/07 08:10:04;;;;;;;16.87;8.57;;;;;;;;;;5030916;28;20226;-58
2022/01/07 08:12:51;;;;;;;13.23;7.97;;;;;;;;;;5031981;28;20207;-59
2022/01/07 08:17:58;;;;;;;17.13;8.53;;;;;;;;;;5012428;28;20714;-59
2022/01/07 08:20:24;;;;;;;14.27;8.70;;;;;;;;;;5011728;28;20244;-60
2022/01/07 08:22:49;;;;;;;15.77;8.70;;;;;;;;;;5023060;28;20211;-59
2022/01/07 08:25:14;;;;;;;17.37;8.60;;;;;;;;;;5031533;28;20604;-59
2022/01/07 08:27:40;;;;;;;15.47;9.27;;;;;;;;;;5034963;28;20292;-59
2022/01/07 08:30:13;;;;;;;16.70;9.53;;;;;;;;;;5033090;28;20633;-59
2022/01/07 08:35:27;;;;;;;14.27;9.03;;;;;;;;;;5034446;28;20273;-59
2022/01/07 08:37:52;;;;;;;16.20;8.67;;;;;;;;;;5033617;28;20219;-59
2022/01/07 08:40:21;;;;;;;14.97;8.50;;;;;;;;;;5035160;28;20262;-59
2022/01/07 08:42:46;;;;;;;16.80;8.47;;;;;;;;;;5035538;28;20397;-59
2022/01/07 08:45:11;;;;;;;14.57;8.73;;;;;;;;;;5052709;28;20313;-59
2022/01/07 08:47:36;;;;;;;13.33;7.60;;;;;;;;;;5055375;28;20293;-59
2022/01/07 08:50:02;;;;;;;13.47;8.33;;;;;;;;;;5054203;28;20675;-60
2022/01/07 08:52:27;;;;;;;14.23;8.23;;;;;;;;;;5037399;28;20211;-60
2022/01/07 08:54:53;;;;;;;14.53;8.80;;;;;;;;;;5055286;28;20211;-60
2022/01/07 08:57:19;;;;;;;14.80;8.43;;;;;;;;;;5036012;28;20650;-60
2022/01/07 08:59:44;;;;;;;17.20;9.73;;;;;;;;;;5054916;28;20219;-60
2022/01/07 09:02:10;;;;;;;15.97;9.40;;;;;;;;;;5036938;28;20295;-60
2022/01/07 09:04:35;;;;;;;18.00;9.53;;;;;;;;;;5034100;28;20220;-61
2022/01/07 09:07:00;;;;;;;17.93;9.20;;;;;;;;;;5034496;28;20235;-60
2022/01/07 09:09:26;;;;;;;13.60;8.70;;;;;;;;;;5035207;28;20214;-60
2022/01/07 09:11:52;;;;;;;18.97;8.30;;;;;;;;;;5034052;28;20211;-61
2022/01/07 09:14:17;;;;;;;14.73;8.40;;;;;;;;;;5034306;28;20294;-60
2022/01/07 09:16:42;;;;;;;15.30;9.23;;;;;;;;;;5027086;28;20295;-60
2022/01/07 09:19:07;;;;;;;16.00;8.30;;;;;;;;;;5035900;28;20226;-60
2022/01/07 09:21:33;;;;;;;16.23;8.87;;;;;;;;;;5035210;28;20631;-60
2022/01/07 09:23:58;;;;;;;18.10;8.87;;;;;;;;;;5034653;28;20806;-60
2022/01/07 09:26:23;;;;;;;18.67;8.87;;;;;;;;;;5033563;28;20208;-60
2022/01/07 09:28:48;;;;;;;14.80;8.27;;;;;;;;;;5017152;28;20204;-60
2022/01/07 09:31:14;;;;;;;14.53;9.00;;;;;;;;;;5033877;28;20212;-60
2022/01/07 09:33:39;;;;;;;14.97;9.20;;;;;;;;;;5016083;28;20340;-60
2022/01/07 09:36:05;;;;;;;17.53;8.97;;;;;;;;;;5034210;28;20208;-60
2022/01/07 09:38:30;;;;;;;16.43;8.17;;;;;;;;;;5034285;28;20243;-60
2022/01/07 09:40:55;;;;;;;13.43;7.83;;;;;;;;;;5033482;28;20556;-60
2022/01/07 09:43:22;;;;;;;17.33;9.10;;;;;;;;;;5033632;28;20227;-60
2022/01/07 09:45:48;;;;;;;16.37;7.90;;;;;;;;;;5034057;28;20278;-60
2022/01/07 09:48:13;;;;;;;15.63;8.60;;;;;;;;;;5033114;28;20216;-60
2022/01/07 09:50:38;;;;;;;14.20;7.67;;;;;;;;;;5034435;28;20307;-60
2022/01/07 09:53:04;;;;;;;13.10;7.53;;;;;;;;;;5033424;28;20216;-60
2022/01/07 09:55:29;;;;;;;11.83;8.20;;;;;;;;;;5033503;28;20662;-60
2022/01/07 09:57:55;;;;;;;13.97;7.13;;;;;;;;;;5034177;28;20208;-60
2022/01/07 10:00:20;;;;;;;13.57;7.47;;;;;;;;;;5033161;28;20239;-60
2022/01/07 10:02:59;;;;;;;14.93;7.50;;;;;;;;;;5033551;28;20215;-60
2022/01/07 10:05:24;;;;;;;14.30;7.10;;;;;;;;;;5033746;28;20272;-60
2022/01/07 10:07:49;;;;;;;15.10;7.27;;;;;;;;;;5033202;28;20291;-60
2022/01/07 10:10:18;;;;;;;17.03;8.03;;;;;;;;;;5033605;28;20204;-61
2022/01/07 10:12:50;;;;;;;12.87;6.90;;;;;;;;;;5033900;28;20234;-61
2022/01/07 10:15:16;;;;;;;22.87;7.93;;;;;;;;;;5032553;28;20235;-61
2022/01/07 10:17:52;;;;;;;20.57;8.20;;;;;;;;;;5025383;28;20235;-60
2022/01/07 10:20:19;;;;;;;16.40;7.30;;;;;;;;;;5033446;28;20222;-61
2022/01/07 10:22:49;;;;;;;19.13;7.60;;;;;;;;;;5034752;28;20203;-61
2022/01/07 10:25:21;;;;;;;20.27;8.17;;;;;;;;;;5035332;28;20245;-60
2022/01/07 10:27:47;;;;;;;14.90;7.30;;;;;;;;;;5019095;28;20257;-60
2022/01/07 10:30:13;;;;;;;19.33;8.47;;;;;;;;;;5052332;28;20242;-60
2022/01/07 10:32:38;;;;;;;16.73;7.90;;;;;;;;;;5035504;28;20294;-60
2022/01/07 10:35:06;;;;;;;15.03;7.63;;;;;;;;;;5052879;28;20291;-61
2022/01/07 10:37:31;;;;;;;12.37;6.20;;;;;;;;;;5052628;28;20210;-60
2022/01/07 10:39:56;;;;;;;19.67;9.43;;;;;;;;;;5035489;28;20294;-61
2022/01/07 10:42:22;;;;;;;21.73;10.17;;;;;;;;;;5052825;28;20205;-61
2022/01/07 10:45:00;;;;;;;22.77;11.27;;;;;;;;;;5052327;28;20223;-60
2022/01/07 10:47:26;;;;;;;22.87;11.47;;;;;;;;;;5035006;28;20256;-61
2022/01/07 10:49:53;;;;;;;18.73;9.53;;;;;;;;;;5032933;28;20199;-61
2022/01/07 10:52:24;;;;;;;20.40;11.40;;;;;;;;;;5018361;28;20639;-61
2022/01/07 10:55:09;;;;;;;15.57;8.67;;;;;;;;;;5053260;28;20234;-60
2022/01/07 10:57:35;;;;;;;15.57;8.93;;;;;;;;;;5051868;28;20249;-60
2022/01/07 11:00:05;;;;;;;15.50;8.47;;;;;;;;;;5052349;28;20245;-60
2022/01/07 11:02:34;;;;;;;15.55;7.53;;;;;;;;;;5032922;28;20294;-60
2022/01/07 11:05:00;;;;;;;18.17;10.23;;;;;;;;;;5014753;28;20243;-60
2022/01/07 11:07:25;;;;;;;23.80;13.40;;;;;;;;;;5032342;28;20239;-60
2022/01/07 11:09:51;;;;;;;43.50;23.27;;;;;;;;;;5032729;28;20219;-60
2022/01/07 11:12:16;;;;;;;24.40;12.07;;;;;;;;;;5014113;28;20219;-60
2022/01/07 11:14:42;;;;;;;21.63;7.90;;;;;;;;;;5032668;28;20258;-60
2022/01/07 11:17:10;;;;;;;16.53;7.60;;;;;;;;;;5046088;28;20289;-60
2022/01/07 11:19:37;;;;;;;14.37;7.13;;;;;;;;;;5051768;28;20211;-59
2022/01/07 11:22:02;;;;;;;13.00;6.67;;;;;;;;;;5046559;28;20203;-60
2022/01/07 11:24:34;;;;;;;13.90;5.87;;;;;;;;;;5032714;28;20220;-59
2022/01/07 11:27:00;;;;;;;12.00;6.13;;;;;;;;;;5032146;28;20246;-59
2022/01/07 11:29:25;;;;;;;15.50;6.73;;;;;;;;;;5032024;28;20215;-59
2022/01/07 11:31:51;;;;;;;12.23;6.23;;;;;;;;;;5031657;28;20639;-59
2022/01/07 11:34:19;;;;;;;11.53;6.00;;;;;;;;;;5031961;28;20219;-59
2022/01/07 11:36:44;;;;;;;11.60;6.10;;;;;;;;;;5032959;28;20208;-59
2022/01/07 11:39:10;;;;;;;13.10;6.60;;;;;;;;;;5031252;28;20302;-59
2022/01/07 11:41:47;;;;;;;13.50;6.63;;;;;;;;;;5032573;28;20603;-59
2022/01/07 11:44:13;;;;;;;14.50;6.17;;;;;;;;;;5021339;28;20285;-59
2022/01/07 11:46:38;;;;;;;10.90;5.43;;;;;;;;;;5030471;28;20208;-60
2022/01/07 11:49:03;;;;;;;13.07;6.47;;;;;;;;;;5031950;28;20222;-60
2022/01/07 11:51:36;;;;;;;13.57;5.90;;;;;;;;;;5032498;28;20713;-60
2022/01/07 11:54:03;;;;;;;14.60;5.77;;;;;;;;;;5030195;28;20674;-60
2022/01/07 11:56:28;;;;;;;10.13;5.77;;;;;;;;;;5032395;28;20222;-59
2022/01/07 11:58:56;;;;;;;13.70;5.83;;;;;;;;;;5032309;28;20208;-59
2022/01/07 12:01:29;;;;;;;12.90;5.33;;;;;;;;;;5033689;28;20227;-59
2022/01/07 12:03:56;;;;;;;10.47;5.20;;;;;;;;;;5034986;28;20216;-60
2022/01/07 12:06:28;;;;;;;19.13;6.03;;;;;;;;;;5036045;28;20212;-59
2022/01/07 12:08:54;;;;;;;12.70;5.10;;;;;;;;;;5035525;28;20235;-60
2022/01/07 12:11:19;;;;;;;12.33;4.77;;;;;;;;;;5035696;28;20667;-59
2022/01/07 12:13:45;;;;;;;11.13;4.90;;;;;;;;;;5035054;28;20218;-60
2022/01/07 12:16:10;;;;;;;10.40;4.73;;;;;;;;;;5034991;28;20208;-59
2022/01/07 12:18:36;;;;;;;12.70;4.23;;;;;;;;;;5036117;28;20208;-59
2022/01/07 12:21:01;;;;;;;14.50;4.23;;;;;;;;;;5035127;28;20250;-60
2022/01/07 12:23:26;;;;;;;14.10;4.30;;;;;;;;;;5052975;28;20207;-60
2022/01/07 12:25:52;;;;;;;11.67;4.30;;;;;;;;;;5055865;28;20767;-60
2022/01/07 12:28:17;;;;;;;12.73;4.17;;;;;;;;;;5053425;28;20239;-60
2022/01/07 12:30:43;;;;;;;11.63;4.40;;;;;;;;;;5055820;28;20294;-60
2022/01/07 12:33:09;;;;;;;18.00;4.50;;;;;;;;;;5055354;28;20369;-60
2022/01/07 12:35:34;;;;;;;14.37;4.83;;;;;;;;;;5054880;28;20742;-59
2022/01/07 12:38:00;;;;;;;11.43;4.03;;;;;;;;;;5055791;28;20298;-59
2022/01/07 12:40:25;;;;;;;12.17;3.70;;;;;;;;;;5053980;28;20232;-60
2022/01/07 12:42:50;;;;;;;9.93;3.70;;;;;;;;;;5054762;28;20218;-60
2022/01/07 12:45:16;;;;;;;13.30;3.93;;;;;;;;;;5035358;28;20228;-61
2022/01/07 12:47:42;;;;;;;10.15;3.80;;;;;;;;;;5017770;28;20257;-59
2022/01/07 12:50:07;;;;;;;12.60;4.57;;;;;;;;;;5034068;28;20351;-60
2022/01/07 12:52:33;;;;;;;10.80;4.03;;;;;;;;;;5035442;28;20219;-60
2022/01/07 12:55:02;;;;;;;9.60;3.63;;;;;;;;;;5001210;28;20212;-59
2022/01/07 12:57:28;;;;;;;10.65;3.72;;;;;;;;;;5016902;28;20215;-60
2022/01/07 13:00:04;;;;;;;8.15;4.07;;;;;;;;;;5035315;28;20203;-60
2022/01/07 13:02:29;;;;;;;9.43;3.53;;;;;;;;;;5015410;28;20216;-59
2022/01/07 13:05:08;;;;;;;10.15;3.83;;;;;;;;;;5014822;28;20235;-59
2022/01/07 13:07:33;;;;;;;9.85;3.90;;;;;;;;;;5015270;28;20208;-59
2022/01/07 13:10:00;;;;;;;13.17;4.30;;;;;;;;;;4997844;28;20219;-59
2022/01/07 13:12:25;;;;;;;11.50;4.03;;;;;;;;;;5013080;28;21132;-60
2022/01/07 13:14:50;;;;;;;10.57;4.00;;;;;;;;;;4998036;28;20223;-60
2022/01/07 13:17:15;;;;;;;12.63;5.10;;;;;;;;;;5029122;28;20679;-60
2022/01/07 13:19:44;;;;;;;11.63;4.67;;;;;;;;;;5016527;28;20208;-59
2022/01/07 13:22:09;;;;;;;14.95;5.53;;;;;;;;;;5027885;28;20209;-60
2022/01/07 13:24:35;;;;;;;14.73;4.87;;;;;;;;;;5014104;28;20220;-60
2022/01/07 13:27:05;;;;;;;14.03;4.87;;;;;;;;;;4997545;28;20258;-60
2022/01/07 13:29:31;;;;;;;14.17;5.67;;;;;;;;;;4997953;28;20290;-60
2022/01/07 13:31:58;;;;;;;18.43;6.53;;;;;;;;;;5014204;28;20243;-60
2022/01/07 13:34:24;;;;;;;24.60;9.57;;;;;;;;;;5014668;28;20243;-60
2022/01/07 13:36:49;;;;;;;21.43;9.27;;;;;;;;;;5014603;28;20212;-59
2022/01/07 13:39:16;;;;;;;19.97;8.07;;;;;;;;;;4995704;28;20213;-60
2022/01/07 13:41:52;;;;;;;15.87;8.20;;;;;;;;;;5014924;28;20306;-60
2022/01/07 13:44:17;;;;;;;14.17;6.60;;;;;;;;;;5013244;28;20707;-60
2022/01/07 13:46:48;;;;;;;14.50;6.60;;;;;;;;;;5013836;28;20220;-60
2022/01/07 13:49:13;;;;;;;12.23;5.87;;;;;;;;;;5014103;28;20217;-60
2022/01/07 13:51:38;;;;;;;14.07;6.13;;;;;;;;;;5014475;28;20213;-60
2022/01/07 13:54:03;;;;;;;13.13;5.00;;;;;;;;;;5013197;28;20303;-60
2022/01/07 13:56:29;;;;;;;15.97;4.33;;;;;;;;;;5014525;28;20621;-60
2022/01/07 13:58:58;;;;;;;13.02;4.70;;;;;;;;;;4996853;28;20197;-62
2022/01/07 14:01:23;;;;;;;6.38;2.42;;;;;;;;;;5000679;28;20207;-63
2022/01/07 14:03:50;;;;;;;7.00;2.37;;;;;;;;;;5012242;28;20211;-65
2022/01/07 14:06:22;;;;;;;6.53;1.80;;;;;;;;;;5004093;28;20247;-64
2022/01/07 14:08:47;;;;;;;7.10;2.35;;;;;;;;;;4994680;28;20988;-66
2022/01/07 14:11:13;;;;;;;7.93;2.17;;;;;;;;;;5004320;28;20232;-63
2022/01/07 14:13:38;;;;;;;3.97;1.40;;;;;;;;;;5009749;28;20283;-63
2022/01/07 14:16:04;;;;;;;6.40;1.20;;;;;;;;;;5012726;28;20224;-63
2022/01/07 14:18:31;;;;;;;3.63;1.10;;;;;;;;;;5012648;28;20267;-64
2022/01/07 14:21:04;;;;;;;4.97;1.20;;;;;;;;;;5013197;28;20220;-64
2022/01/07 14:23:30;;;;;;;5.03;1.07;;;;;;;;;;5012597;28;20216;-65
2022/01/07 14:26:00;;;;;;;3.97;1.00;;;;;;;;;;5012199;28;20228;-65
2022/01/07 14:28:26;;;;;;;4.87;1.13;;;;;;;;;;5012591;28;20347;-65
2022/01/07 14:30:51;;;;;;;6.80;1.30;;;;;;;;;;5013646;28;20293;-65
2022/01/07 14:33:16;;;;;;;5.68;1.67;;;;;;;;;;5012937;28;20224;-65
2022/01/07 14:35:42;;;;;;;18.93;9.40;;;;;;;;;;5013215;28;20221;-65